createdAt,value
2023-08-14T00:03:42.286Z,100519.59
2023-08-14T00:08:45.442Z,100515.63
2023-08-14T00:13:52.647Z,100518.34
2023-08-14T00:18:55.885Z,100519.29
2023-08-14T00:23:58.967Z,100518.13
2023-08-14T00:29:02.093Z,100520.71
2023-08-14T00:34:05.391Z,100520.42
2023-08-14T00:39:08.710Z,100522.80
2023-08-14T00:44:11.809Z,100528.64
2023-08-14T00:49:15.020Z,100524.42
2023-08-14T00:54:18.229Z,100526.35
2023-08-14T00:59:21.662Z,100526.17
2023-08-14T01:04:25.082Z,100527.78
2023-08-14T01:09:28.418Z,100528.58
2023-08-14T01:14:34.084Z,100529.13
2023-08-14T01:19:43.094Z,100524.74
2023-08-14T01:25:01.361Z,100521.66
2023-08-14T01:30:04.903Z,100516.67
2023-08-14T01:35:08.815Z,100513.39
2023-08-14T01:40:24.973Z,100522.27
2023-08-14T01:45:31.207Z,100523.24
2023-08-14T01:50:34.819Z,100526.71
2023-08-14T01:55:37.838Z,100526.79
2023-08-14T02:00:41.164Z,100532.34
2023-08-14T02:05:44.269Z,100538.23
2023-08-14T02:10:47.976Z,100538.71
2023-08-14T02:15:51.016Z,100542.55
2023-08-14T02:20:54.918Z,100545.35
2023-08-14T02:25:58.034Z,100545.83
2023-08-14T02:31:03.432Z,100547.14
2023-08-14T02:36:06.916Z,100544.78
2023-08-14T02:41:10.122Z,100544.50
2023-08-14T02:46:13.678Z,100548.86
2023-08-14T02:51:18.163Z,100553.97
2023-08-14T02:56:21.119Z,100553.71
2023-08-14T03:01:24.100Z,100555.16
2023-08-14T03:06:31.084Z,100558.97
2023-08-14T03:11:34.094Z,100559.85
2023-08-14T03:16:37.113Z,100557.20
2023-08-14T03:21:42.171Z,100560.20
2023-08-14T03:26:45.538Z,100562.20
2023-08-14T03:31:49.403Z,100564.50
2023-08-14T03:36:52.512Z,100571.36
2023-08-14T03:41:55.617Z,100567.42
2023-08-14T03:46:58.729Z,100568.55
2023-08-14T03:52:01.634Z,100566.46
2023-08-14T03:57:04.750Z,100572.58
2023-08-14T04:02:07.773Z,100571.95
2023-08-14T04:07:10.966Z,100562.23
2023-08-14T04:12:14.130Z,100567.02
2023-08-14T04:17:17.388Z,100572.95
2023-08-14T04:22:20.624Z,100575.77
2023-08-14T04:27:24.219Z,100575.95
2023-08-14T04:32:27.439Z,100579.20
2023-08-14T04:37:30.536Z,100573.38
2023-08-14T04:42:34.977Z,100575.08
2023-08-14T04:47:38.269Z,100576.98
2023-08-14T04:52:41.400Z,100580.53
2023-08-14T04:57:44.509Z,100581.11
2023-08-14T05:02:47.827Z,100580.87
2023-08-14T05:07:51.033Z,100582.09
2023-08-14T05:12:54.143Z,100583.42
2023-08-14T05:17:57.170Z,100586.36
2023-08-14T05:23:00.260Z,100586.52
2023-08-14T05:28:04.395Z,100580.89
2023-08-14T05:33:07.752Z,100582.05
2023-08-14T05:38:10.819Z,100583.12
2023-08-14T05:43:14.127Z,100579.89
2023-08-14T05:48:17.242Z,100582.58
2023-08-14T05:53:20.290Z,100580.29
2023-08-14T05:58:23.285Z,100587.66
2023-08-14T06:03:42.084Z,100595.52
2023-08-14T06:08:47.184Z,100595.95
2023-08-14T06:13:50.402Z,100593.83
2023-08-14T06:18:54.516Z,100598.30
2023-08-14T06:23:58.046Z,100604.15
2023-08-14T06:29:01.069Z,100604.75
2023-08-14T06:34:04.301Z,100601.38
2023-08-14T06:39:08.614Z,100602.20
2023-08-14T06:44:12.421Z,100604.55
2023-08-14T06:49:15.648Z,100604.23
2023-08-14T06:54:18.999Z,100610.45
2023-08-14T06:59:22.171Z,100606.33
2023-08-14T07:04:25.389Z,100606.48
2023-08-14T07:09:28.716Z,100606.82
2023-08-14T07:14:32.734Z,100608.39
2023-08-14T07:19:37.368Z,100619.08
2023-08-14T07:24:40.897Z,100623.34
2023-08-14T07:29:44.910Z,100619.53
2023-08-14T07:34:49.886Z,100622.16
2023-08-14T07:39:53.116Z,100620.16
2023-08-14T07:44:56.187Z,100622.41
2023-08-14T07:49:59.409Z,100614.29
2023-08-14T07:55:06.417Z,100614.24
2023-08-14T08:00:10.675Z,100618.31
2023-08-14T08:05:14.378Z,100615.23
2023-08-14T08:10:17.363Z,100615.65
2023-08-14T08:15:20.571Z,100605.63
2023-08-14T08:20:23.988Z,100603.89
2023-08-14T08:25:27.121Z,100600.46
2023-08-14T08:30:30.215Z,100593.56
2023-08-14T08:35:33.430Z,100586.42
2023-08-14T08:40:37.515Z,100588.37
2023-08-14T08:45:47.192Z,100595.62
2023-08-14T08:50:51.831Z,100589.75
2023-08-14T08:55:55.893Z,100593.40
2023-08-14T09:01:00.914Z,100598.11
2023-08-14T09:06:06.133Z,100588.86
2023-08-14T09:11:10.247Z,100585.25
2023-08-14T09:16:28.910Z,100586.04
2023-08-14T09:21:33.060Z,100582.03
2023-08-14T09:26:44.271Z,100571.39
2023-08-14T09:31:53.368Z,100571.08
2023-08-14T09:36:59.853Z,100561.20
2023-08-14T09:42:05.861Z,100557.63
2023-08-14T09:47:09.685Z,100559.48
2023-08-14T09:52:13.214Z,100564.17
2023-08-14T09:57:18.081Z,100568.48
2023-08-14T10:02:24.090Z,100576.37
2023-08-14T10:07:28.694Z,100580.23
2023-08-14T10:12:38.136Z,100582.20
2023-08-14T10:18:00.516Z,100581.07
2023-08-14T10:23:03.919Z,100584.75
2023-08-14T10:28:08.876Z,100578.16
2023-08-14T10:33:13.875Z,100572.84
2023-08-14T10:38:25.215Z,100571.25
2023-08-14T10:43:30.642Z,100563.35
2023-08-14T10:48:38.512Z,100558.70
2023-08-14T10:53:42.446Z,100552.93
2023-08-14T10:58:49.034Z,100542.99
2023-08-14T11:03:59.840Z,100539.27
2023-08-14T11:09:05.846Z,100533.23
2023-08-14T11:14:10.852Z,100523.94
2023-08-14T11:19:20.318Z,100519.73
2023-08-14T11:24:25.767Z,100513.34
2023-08-14T11:29:32.840Z,100517.88
2023-08-14T11:34:40.107Z,100523.73
2023-08-14T11:39:52.602Z,100524.37
2023-08-14T11:45:05.548Z,100522.97
2023-08-14T11:50:11.212Z,100522.13
2023-08-14T11:55:17.823Z,100510.45
2023-08-14T12:00:30.189Z,100500.51
2023-08-14T12:05:37.138Z,100490.39
2023-08-14T12:10:41.459Z,100482.39
2023-08-14T12:15:44.659Z,100476.77
2023-08-14T12:20:55.679Z,100472.67
2023-08-14T12:25:58.782Z,100473.83
2023-08-14T12:31:01.908Z,100476.74
2023-08-14T12:36:05.449Z,100471.04
2023-08-14T12:41:08.617Z,100464.54
2023-08-14T12:46:12.616Z,100461.02
2023-08-14T12:51:15.668Z,100462.48
2023-08-14T12:56:19.284Z,100465.45
2023-08-14T13:01:24.040Z,100469.81
2023-08-14T13:06:29.207Z,100468.70
2023-08-14T13:11:32.392Z,100463.27
2023-08-14T13:16:35.834Z,100461.27
2023-08-14T13:21:38.937Z,100459.19
2023-08-14T13:26:42.234Z,100457.04
2023-08-14T13:31:45.747Z,100456.33
2023-08-14T13:36:48.760Z,100452.77
2023-08-14T13:41:51.774Z,100455.05
2023-08-14T13:46:54.985Z,100452.59
2023-08-14T13:51:57.981Z,100446.01
2023-08-14T13:57:01.090Z,100443.42
2023-08-14T14:02:04.413Z,100436.23
2023-08-14T14:07:07.720Z,100425.65
2023-08-14T14:12:10.865Z,100408.20
2023-08-14T14:17:15.162Z,100404.33
2023-08-14T14:22:18.283Z,100411.38
2023-08-14T14:27:21.533Z,100416.88
2023-08-14T14:32:24.783Z,100408.93
2023-08-14T14:37:27.917Z,100410.08
2023-08-14T14:42:30.918Z,100413.23
2023-08-14T14:47:33.984Z,100412.95
2023-08-14T14:52:37.143Z,100408.48
2023-08-14T14:57:40.259Z,100404.03
2023-08-14T15:02:43.550Z,100394.42
2023-08-14T15:07:47.921Z,100385.40
2023-08-14T15:12:50.917Z,100379.73
2023-08-14T15:17:54.346Z,100367.52
2023-08-14T15:22:57.977Z,100361.46
2023-08-14T15:28:01.369Z,100350.92
2023-08-14T15:33:04.599Z,100350.34
2023-08-14T15:38:08.004Z,100347.89
2023-08-14T15:43:11.408Z,100345.05
2023-08-14T15:48:14.622Z,100348.35
2023-08-14T15:53:17.933Z,100347.46
2023-08-14T15:58:21.180Z,100350.79
2023-08-14T16:03:25.910Z,100348.70
2023-08-14T16:08:32.270Z,100339.45
2023-08-14T16:13:35.703Z,100342.96
2023-08-14T16:18:40.070Z,100341.67
2023-08-14T16:23:43.656Z,100337.81
2023-08-14T16:28:47.065Z,100345.06
2023-08-14T16:33:51.405Z,100339.83
2023-08-14T16:38:55.332Z,100340.32
2023-08-14T16:43:58.649Z,100346.55
2023-08-14T16:49:02.876Z,100345.73
2023-08-14T16:54:08.650Z,100344.69
2023-08-14T16:59:12.584Z,100353.29
2023-08-14T17:04:15.813Z,100349.83
2023-08-14T17:09:19.331Z,100349.54
2023-08-14T17:14:22.556Z,100348.75
2023-08-14T17:19:26.861Z,100347.42
2023-08-14T17:24:30.080Z,100354.83
2023-08-14T17:29:36.049Z,100365.48
2023-08-14T17:34:39.266Z,100375.98
2023-08-14T17:39:42.576Z,100376.83
2023-08-14T17:44:45.798Z,100377.09
2023-08-14T17:49:48.896Z,100380.96
2023-08-14T17:54:51.909Z,100378.00
2023-08-14T17:59:55.022Z,100381.86
2023-08-14T18:04:58.125Z,100379.95
2023-08-14T18:10:01.223Z,100383.59
2023-08-14T18:15:05.027Z,100385.58
2023-08-14T18:20:09.554Z,100377.11
2023-08-14T18:25:12.605Z,100382.63
2023-08-14T18:30:15.817Z,100383.42
2023-08-14T18:35:18.932Z,100384.09
2023-08-14T18:40:22.061Z,100382.95
2023-08-14T18:45:28.230Z,100389.96
2023-08-14T18:50:31.542Z,100388.63
2023-08-14T18:55:41.301Z,100390.27
2023-08-14T19:00:44.508Z,100394.44
2023-08-14T19:05:56.053Z,100388.70
2023-08-14T19:10:59.443Z,100392.92
2023-08-14T19:16:02.567Z,100399.95
2023-08-14T19:21:05.953Z,100407.79
2023-08-14T19:26:22.432Z,100405.91
2023-08-14T19:31:30.141Z,100401.34
2023-08-14T19:36:34.949Z,100401.33
2023-08-14T19:41:37.958Z,100407.15
2023-08-14T19:46:41.546Z,100409.34
2023-08-14T19:51:44.787Z,100416.52
2023-08-14T19:56:47.892Z,100417.36
2023-08-14T20:01:51.107Z,100423.61
2023-08-14T20:06:54.420Z,100423.50
2023-08-14T20:11:58.157Z,100425.05
2023-08-14T20:17:01.788Z,100427.09
2023-08-14T20:22:05.182Z,100423.14
2023-08-14T20:27:09.126Z,100423.41
2023-08-14T20:32:12.224Z,100419.64
2023-08-14T20:37:15.365Z,100415.65
2023-08-14T20:42:18.543Z,100412.25
2023-08-14T20:47:21.822Z,100411.48
2023-08-14T20:52:25.578Z,100408.35
2023-08-14T20:57:28.710Z,100406.83
2023-08-14T21:02:31.966Z,100408.88
2023-08-14T21:07:35.213Z,100414.34
2023-08-14T21:12:38.530Z,100413.30
2023-08-14T21:17:41.754Z,100411.81
2023-08-14T21:22:46.329Z,100410.92
2023-08-14T21:27:50.527Z,100417.46
2023-08-14T21:32:53.978Z,100414.52
2023-08-14T21:37:57.159Z,100411.91
2023-08-14T21:43:01.388Z,100406.86
2023-08-14T21:48:04.833Z,100406.99
2023-08-14T21:53:08.314Z,100409.14
2023-08-14T21:58:11.731Z,100409.17
2023-08-14T22:03:14.934Z,100410.02
2023-08-14T22:08:18.188Z,100410.44
2023-08-14T22:13:21.250Z,100408.38
2023-08-14T22:18:25.087Z,100408.37
2023-08-14T22:23:31.803Z,100407.27
2023-08-14T22:28:34.880Z,100407.61
2023-08-14T22:33:37.885Z,100409.14
2023-08-14T22:38:40.997Z,100409.29
2023-08-14T22:43:44.101Z,100404.58
2023-08-14T22:48:47.213Z,100403.35
2023-08-14T22:53:50.165Z,100401.08
2023-08-14T22:58:53.232Z,100401.14
2023-08-14T23:03:56.255Z,100401.14
2023-08-14T23:08:59.447Z,100390.88
2023-08-14T23:14:02.561Z,100386.96
2023-08-14T23:19:06.410Z,100383.65
2023-08-14T23:24:09.500Z,100384.79
2023-08-14T23:29:12.495Z,100387.50
2023-08-14T23:34:15.513Z,100396.41
2023-08-14T23:39:21.103Z,100401.67
2023-08-14T23:44:24.186Z,100400.28
2023-08-14T23:49:27.296Z,100396.83
2023-08-14T23:54:32.037Z,100399.55
2023-08-14T23:59:35.152Z,100398.56
